Time;durP1;ratioP1;P1;durP2;ratioP2;P2;SDS_P1;SDS_P2;PMS_P1;PMS_P2;Temp;Humidity;BMP_temperature;BMP_pressure;BME280_temperature;BME280_humidity;BME280_pressure;Samples;Min_cycle;Max_cycle;Signal;HPM_P1;HPM_P2
2023/08/28 00:01:55;;;;;;;32.70;16.00;;;;;;;27.79;63.40;98236.45;67836;1278;1016379;-61
2023/08/28 00:04:57;;;;;;;31.80;15.00;;;;;;;27.87;62.51;98213.75;67768;1278;1016481;-61
2023/08/28 00:08:00;;;;;;;30.90;14.90;;;;;;;27.77;63.26;98223.70;67789;1278;1015862;-61
2023/08/28 00:11:03;;;;;;;26.60;12.60;;;;;;;27.77;62.47;98207.73;67836;1278;1016297;-61
2023/08/28 00:14:05;;;;;;;24.20;10.20;;;;;;;27.81;61.55;98203.98;67794;1278;1016438;-61
2023/08/28 00:17:08;;;;;;;19.40;7.20;;;;;;;27.66;60.59;98200.86;67818;1278;1016363;-62
2023/08/28 00:20:11;;;;;;;16.70;5.90;;;;;;;27.74;59.49;98198.48;67830;1278;1016268;-61
2023/08/28 00:23:13;;;;;;;18.70;6.70;;;;;;;27.73;59.46;98205.20;67795;1278;1016260;-61
2023/08/28 00:26:16;;;;;;;18.80;5.50;;;;;;;27.66;59.36;98213.39;67783;1278;1016317;-61
2023/08/28 00:29:18;;;;;;;16.60;5.10;;;;;;;27.37;60.31;98220.64;67784;1278;1016277;-61
2023/08/28 00:32:20;;;;;;;16.60;5.40;;;;;;;27.26;60.62;98229.65;67842;1278;1016244;-60
2023/08/28 00:35:23;;;;;;;17.00;5.80;;;;;;;27.25;60.56;98228.36;67849;1278;1016570;-61
2023/08/28 00:38:25;;;;;;;18.60;6.50;;;;;;;27.14;60.76;98227.71;67806;1278;1016462;-60
2023/08/28 00:41:28;;;;;;;18.00;6.10;;;;;;;27.16;60.59;98229.70;67789;1278;1016083;-60
2023/08/28 00:44:30;;;;;;;16.20;5.40;;;;;;;27.14;60.58;98224.99;67767;1278;1016422;-60
2023/08/28 00:47:32;;;;;;;16.70;5.50;;;;;;;26.91;60.96;98233.34;67835;1277;1016583;-61
2023/08/28 00:50:35;;;;;;;16.50;4.80;;;;;;;26.81;61.12;98244.76;67807;1278;1016284;-60
2023/08/28 00:53:37;;;;;;;14.80;4.40;;;;;;;26.63;61.45;98249.19;67846;1278;1016477;-60
2023/08/28 00:56:40;;;;;;;13.40;4.20;;;;;;;26.66;60.57;98255.34;67829;1278;1016126;-60
2023/08/28 00:59:42;;;;;;;18.00;4.30;;;;;;;26.64;60.47;98263.20;67825;1278;1016345;-61
2023/08/28 01:02:45;;;;;;;12.20;3.60;;;;;;;26.57;59.99;98262.17;67823;1278;1016489;-59
2023/08/28 01:05:47;;;;;;;11.00;3.10;;;;;;;26.45;60.55;98245.61;67780;1278;1016186;-62
2023/08/28 01:08:50;;;;;;;9.30;3.40;;;;;;;26.26;60.71;98255.86;67804;1277;1018733;-62
2023/08/28 01:11:52;;;;;;;10.00;3.50;;;;;;;26.24;60.85;98271.88;67787;1278;1016429;-62
2023/08/28 01:14:54;;;;;;;9.00;3.10;;;;;;;26.43;59.95;98270.35;67790;1278;1016351;-62
2023/08/28 01:17:57;;;;;;;10.40;3.10;;;;;;;26.24;60.44;98278.11;67823;1278;1016347;-62
2023/08/28 01:20:59;;;;;;;7.40;2.70;;;;;;;26.32;59.98;98272.65;67827;1278;1016753;-62
2023/08/28 01:24:03;;;;;;;6.70;2.30;;;;;;;26.35;59.64;98276.98;67814;1278;1016472;-59
2023/08/28 01:27:05;;;;;;;6.50;2.30;;;;;;;26.19;60.26;98283.79;67817;1278;1016413;-59
2023/08/28 01:30:08;;;;;;;6.00;2.30;;;;;;;26.30;59.78;98288.98;67773;1278;1017660;-59
2023/08/28 01:33:11;;;;;;;9.00;2.10;;;;;;;26.30;59.74;98301.43;67854;1278;1016402;-62
2023/08/28 01:36:14;;;;;;;9.60;2.50;;;;;;;26.13;60.43;98300.52;67854;1278;1016351;-61
2023/08/28 01:39:16;;;;;;;8.80;2.30;;;;;;;26.09;60.56;98300.15;67786;1278;1016499;-62
2023/08/28 01:42:18;;;;;;;6.10;2.20;;;;;;;26.11;60.52;98296.37;67813;1278;1016468;-62
2023/08/28 01:45:21;;;;;;;6.80;2.00;;;;;;;26.15;60.10;98304.14;67814;1278;1016313;-59
2023/08/28 01:48:23;;;;;;;5.70;1.80;;;;;;;25.94;61.05;98326.08;67839;1277;1016331;-59
2023/08/28 01:51:26;;;;;;;5.90;1.80;;;;;;;26.35;58.81;98286.28;67817;1278;1017251;-61
2023/08/28 01:54:28;;;;;;;5.70;1.70;;;;;;;26.61;57.86;98315.33;67788;1278;1017614;-61
2023/08/28 01:57:30;;;;;;;8.40;1.90;;;;;;;26.53;58.04;98308.65;67774;1278;1016500;-61
2023/08/28 02:00:33;;;;;;;6.20;1.70;;;;;;;26.57;57.83;98313.89;67846;1278;1016260;-61
2023/08/28 02:03:35;;;;;;;;;;;;;;;26.63;57.60;98316.73;67846;1278;1017011;-62
2023/08/28 02:06:38;;;;;;;5.70;1.80;;;;;;;26.55;57.96;98315.63;67807;1278;1016113;-61
2023/08/28 02:09:40;;;;;;;;;;;;;;;26.40;58.59;98320.73;67796;1278;1018050;-59
2023/08/28 02:12:42;;;;;;;5.30;1.40;;;;;;;26.29;58.79;98313.91;67796;1278;1016138;-61
2023/08/28 02:15:45;;;;;;;;;;;;;;;26.38;58.49;98302.13;67785;1278;1016479;-62
2023/08/28 02:18:48;;;;;;;8.20;1.90;;;;;;;26.52;57.91;98296.73;67814;1277;1016429;-62
2023/08/28 02:21:50;;;;;;;3.50;1.30;;;;;;;26.46;58.25;98298.80;67804;1278;1016381;-62
2023/08/28 02:24:53;;;;;;;8.00;1.90;;;;;;;26.45;58.45;98303.20;67806;1278;1016494;-61
2023/08/28 02:27:55;;;;;;;;;;;;;;;26.29;59.14;98309.50;67819;1278;1016551;-61
2023/08/28 02:30:58;;;;;;;9.00;1.80;;;;;;;26.13;60.00;98300.48;67795;1277;1016184;-62
2023/08/28 02:34:00;;;;;;;5.80;1.60;;;;;;;26.10;59.92;98302.89;67784;1278;1018949;-62
2023/08/28 02:37:03;;;;;;;2.70;1.40;;;;;;;26.03;60.21;98294.64;67796;1278;1016009;-62
2023/08/28 02:40:05;;;;;;;3.20;1.40;;;;;;;25.97;60.36;98287.08;67824;1277;1016273;-62
2023/08/28 02:43:09;;;;;;;4.90;1.80;;;;;;;25.90;60.42;98294.16;67848;1278;1018580;-59
2023/08/28 02:46:11;;;;;;;4.60;1.70;;;;;;;26.07;59.70;98297.79;67801;1278;1016367;-59
2023/08/28 02:49:13;;;;;;;6.70;2.10;;;;;;;26.19;59.03;98300.98;67862;1278;1016423;-59
2023/08/28 02:52:16;;;;;;;9.00;1.80;;;;;;;26.09;59.29;98305.95;67825;1278;1016434;-62
2023/08/28 02:55:18;;;;;;;;;;;;;;;26.18;58.83;98301.85;67804;1278;1016379;-61
2023/08/28 02:58:21;;;;;;;5.40;1.60;;;;;;;26.32;58.12;98299.98;67771;1278;1018092;-61
2023/08/28 03:01:23;;;;;;;;;;;;;;;26.36;57.85;98296.67;67788;1278;1016597;-62
2023/08/28 03:04:25;;;;;;;5.00;2.00;;;;;;;26.46;57.44;98297.85;67815;1278;1016520;-62
2023/08/28 03:07:28;;;;;;;;;;;;;;;26.33;57.82;98304.66;67848;1278;1017289;-62
2023/08/28 03:10:30;;;;;;;4.80;1.70;;;;;;;26.23;57.86;98298.05;67841;1278;1017014;-61
2023/08/28 03:13:33;;;;;;;5.10;1.90;;;;;;;26.21;58.13;98293.87;67792;1278;1016397;-61
2023/08/28 03:16:35;;;;;;;;;;;;;;;26.14;58.15;98295.32;67817;1277;1016830;-62
2023/08/28 03:19:37;;;;;;;4.70;2.00;;;;;;;26.11;58.22;98308.55;67810;1278;1018365;-62
2023/08/28 03:22:40;;;;;;;;;;;;;;;26.11;58.08;98312.06;67853;1278;1016385;-61
2023/08/28 03:25:42;;;;;;;4.90;2.00;;;;;;;26.11;58.06;98316.73;67840;1278;1015962;-61
2023/08/28 03:28:45;;;;;;;;;;;;;;;26.17;58.07;98315.70;67852;1278;1016767;-61
2023/08/28 03:31:47;;;;;;;6.50;2.30;;;;;;;26.00;58.66;98290.25;67777;1278;1015941;-61
2023/08/28 03:34:50;;;;;;;5.50;2.60;;;;;;;25.96;58.38;98292.36;67824;1277;1017587;-61
2023/08/28 03:37:52;;;;;;;;;;;;;;;26.11;57.70;98303.71;67816;1278;1016304;-61
2023/08/28 03:40:54;;;;;;;9.70;2.60;;;;;;;26.07;57.75;98321.58;67822;1277;1016471;-61
2023/08/28 03:43:57;;;;;;;;;;;;;;;25.92;58.42;98317.80;67853;1277;1017860;-62
2023/08/28 03:46:59;;;;;;;7.80;2.30;;;;;;;26.18;57.81;98316.11;67820;1278;1016652;-62
2023/08/28 03:50:01;;;;;;;7.10;2.20;;;;;;;26.16;57.71;98314.26;67776;1277;1016511;-62
2023/08/28 03:53:04;;;;;;;4.80;1.90;;;;;;;26.20;57.49;98314.79;67760;1278;1016406;-62
2023/08/28 03:56:06;;;;;;;;;;;;;;;26.18;57.66;98322.48;67827;1278;1016475;-62
2023/08/28 03:59:09;;;;;;;7.30;1.90;;;;;;;26.17;57.77;98330.43;67863;1277;1016405;-62
2023/08/28 04:02:11;;;;;;;;;;;;;;;26.14;57.73;98336.58;67845;1278;1016286;-62
2023/08/28 04:05:13;;;;;;;10.60;2.30;;;;;;;25.95;58.19;98338.69;67824;1278;1016056;-62
2023/08/28 04:08:16;;;;;;;8.40;2.20;;;;;;;25.96;58.15;98331.23;67775;1278;1016394;-62
2023/08/28 04:11:18;;;;;;;;;;;;;;;26.02;57.79;98331.15;67838;1278;1016717;-62
2023/08/28 04:14:21;;;;;;;4.60;1.70;;;;;;;26.03;57.72;98328.55;67863;1278;1016359;-61
2023/08/28 04:17:23;;;;;;;5.90;1.70;;;;;;;26.08;57.74;98334.19;67852;1278;1016147;-61
2023/08/28 04:20:26;;;;;;;;;;;;;;;25.96;58.28;98349.73;67806;1278;1016408;-62
2023/08/28 04:23:28;;;;;;;5.80;2.00;;;;;;;26.00;58.25;98351.44;67814;1278;1016180;-62
2023/08/28 04:26:31;;;;;;;;;;;;;;;25.93;58.50;98365.25;67870;1278;1016465;-61
2023/08/28 04:29:33;;;;;;;6.70;1.80;;;;;;;25.92;58.62;98371.99;67766;1278;1016371;-61
2023/08/28 04:32:36;;;;;;;5.20;1.90;;;;;;;26.09;58.07;98368.45;67806;1278;1016448;-61
2023/08/28 04:35:38;;;;;;;;;;;;;;;26.03;58.05;98369.17;67821;1278;1016636;-62
2023/08/28 04:38:41;;;;;;;7.80;2.20;;;;;;;26.00;58.34;98380.70;67830;1278;1016343;-61
2023/08/28 04:41:43;;;;;;;;;;;;;;;26.00;58.20;98398.05;67849;1278;1016280;-59
2023/08/28 04:44:46;;;;;;;6.30;2.10;;;;;;;25.93;58.39;98402.94;67790;1278;1016442;-60
2023/08/28 04:47:48;;;;;;;;;;;;;;;26.00;58.09;98391.23;67802;1278;1016457;-59
2023/08/28 04:50:51;;;;;;;7.20;2.60;;;;;;;26.16;57.98;98381.27;67868;1278;1016801;-62
2023/08/28 04:53:53;;;;;;;;;;;;;;;26.11;58.11;98379.81;67832;1278;1016499;-61
2023/08/28 04:56:55;;;;;;;6.30;2.30;;;;;;;26.37;57.48;98374.41;67826;1278;1016387;-61
2023/08/28 04:59:58;;;;;;;;;;;;;;;26.24;58.00;98378.64;67823;1278;1016163;-62
2023/08/28 05:03:00;;;;;;;9.20;2.30;;;;;;;26.19;58.14;98377.05;67797;1278;1016479;-60
2023/08/28 05:06:02;;;;;;;;;;;;;;;26.11;58.55;98378.33;67825;1278;1016831;-61
2023/08/28 05:09:05;;;;;;;7.60;2.30;;;;;;;25.92;58.75;98389.48;67799;1278;1016297;-62
2023/08/28 05:12:07;;;;;;;;;;;;;;;25.90;58.90;98390.98;67844;1278;1016078;-62
2023/08/28 05:15:10;;;;;;;12.90;3.30;;;;;;;25.90;59.29;98402.90;67840;1278;1016455;-61
2023/08/28 05:18:12;;;;;;;12.40;3.40;;;;;;;25.98;58.51;98395.27;67814;1278;1015835;-61
2023/08/28 05:21:14;;;;;;;;;;;;;;;26.07;58.19;98397.29;67815;1278;1016309;-61
2023/08/28 05:24:17;;;;;;;11.10;3.30;;;;;;;26.00;58.18;98403.20;67754;1278;1016444;-62
2023/08/28 05:27:19;;;;;;;;;;;;;;;26.00;58.21;98405.63;67787;1278;1016491;-61
2023/08/28 05:30:22;;;;;;;12.60;3.50;;;;;;;25.70;59.17;98396.52;68109;1277;1016147;-62
2023/08/28 05:33:25;;;;;;;8.60;3.10;;;;;;;26.12;57.99;98401.52;68144;1278;1015802;-61
2023/08/28 05:36:28;;;;;;;10.60;2.80;;;;;;;26.33;56.98;98417.05;67803;1276;1016307;-59
2023/08/28 05:39:30;;;;;;;8.70;2.70;;;;;;;26.24;57.04;98419.44;68390;1278;1016362;-60
2023/08/28 05:42:33;;;;;;;10.00;3.10;;;;;;;26.06;57.81;98417.23;68141;1278;1018828;-59
2023/08/28 05:45:35;;;;;;;11.90;3.20;;;;;;;26.03;57.45;98414.89;68529;1278;1015893;-60
2023/08/28 05:48:38;;;;;;;9.50;3.30;;;;;;;26.06;57.46;98402.83;68557;1278;1015684;-59
2023/08/28 05:51:41;;;;;;;9.70;3.10;;;;;;;26.07;57.78;98389.83;68529;1278;1016236;-59
2023/08/28 05:54:43;;;;;;;9.00;3.30;;;;;;;26.26;57.37;98386.08;67799;1278;1019596;-61
2023/08/28 05:57:46;;;;;;;;;;;;;;;26.24;56.83;98383.92;67819;1278;1016342;-59
2023/08/28 06:00:48;;;;;;;12.30;3.80;;;;;;;26.40;56.50;98384.92;67852;1278;1016329;-59
2023/08/28 06:03:55;;;;;;;13.20;3.80;;;;;;;26.77;55.79;98372.63;67875;1278;1017197;-59
2023/08/28 06:06:58;;;;;;;9.80;3.50;;;;;;;26.57;56.25;98380.29;67578;1278;1363178;-62
2023/08/28 06:10:00;;;;;;;15.10;4.00;;;;;;;26.75;55.85;98384.78;67853;1278;1015909;-61
2023/08/28 06:13:03;;;;;;;14.50;4.20;;;;;;;27.10;54.64;98386.77;67818;1278;1016417;-61
2023/08/28 06:16:05;;;;;;;13.10;4.00;;;;;;;27.17;54.46;98370.35;67801;1278;1016475;-61
2023/08/28 06:19:08;;;;;;;11.70;3.80;;;;;;;27.23;54.81;98369.77;67853;1278;1016391;-62
2023/08/28 06:22:11;;;;;;;12.00;3.90;;;;;;;27.22;54.99;98374.36;67819;1278;1016438;-61
2023/08/28 06:25:13;;;;;;;11.90;4.20;;;;;;;27.43;53.47;98381.02;67760;1278;1016419;-61
2023/08/28 06:28:15;;;;;;;15.20;4.20;;;;;;;27.55;53.18;98383.63;67813;1278;1016233;-62
2023/08/28 06:31:18;;;;;;;15.40;4.60;;;;;;;27.49;53.09;98375.43;67840;1278;1016459;-61
2023/08/28 06:34:20;;;;;;;17.20;4.70;;;;;;;27.59;53.01;98365.61;67846;1278;1016031;-62
2023/08/28 06:37:24;;;;;;;15.10;4.90;;;;;;;27.63;52.97;98379.05;67859;1278;1017432;-61
2023/08/28 06:40:26;;;;;;;15.20;4.60;;;;;;;27.64;52.64;98381.41;67867;1278;1016393;-62
2023/08/28 06:43:29;;;;;;;14.70;5.20;;;;;;;27.52;52.25;98386.33;67796;1278;1016426;-62
2023/08/28 06:46:31;;;;;;;14.40;4.70;;;;;;;27.45;52.38;98380.68;67810;1278;1016495;-62
2023/08/28 06:49:34;;;;;;;17.70;5.70;;;;;;;27.65;52.27;98364.09;67811;1255;1016446;-62
2023/08/28 06:52:37;;;;;;;18.60;5.60;;;;;;;27.76;51.77;98368.84;67841;1278;1016484;-62
2023/08/28 06:55:39;;;;;;;17.50;5.30;;;;;;;27.48;52.34;98370.55;67812;1278;1016514;-62
2023/08/28 06:58:41;;;;;;;16.10;5.80;;;;;;;27.51;52.64;98357.49;67773;1278;1016330;-62
2023/08/28 07:01:44;;;;;;;16.80;5.90;;;;;;;27.85;51.79;98349.31;67812;1278;1016424;-61
2023/08/28 07:04:46;;;;;;;17.50;5.80;;;;;;;27.71;51.73;98358.22;67838;1278;1016180;-60
2023/08/28 07:07:49;;;;;;;16.40;5.80;;;;;;;27.53;52.54;98360.25;67801;1278;1016496;-61
2023/08/28 07:10:51;;;;;;;17.10;6.20;;;;;;;27.94;51.74;98364.51;67786;1278;1016490;-61
2023/08/28 07:13:53;;;;;;;15.30;5.80;;;;;;;28.10;51.25;98355.14;67831;1278;1016151;-62
2023/08/28 07:16:56;;;;;;;19.40;6.60;;;;;;;28.45;51.15;98341.88;67811;1278;1016470;-61
2023/08/28 07:19:58;;;;;;;17.00;5.80;;;;;;;28.63;50.54;98346.99;67828;1278;1016161;-61
2023/08/28 07:23:00;;;;;;;17.10;6.10;;;;;;;29.13;50.36;98368.80;67870;1278;1016465;-62
2023/08/28 07:26:03;;;;;;;17.00;5.80;;;;;;;29.34;49.49;98388.44;67885;1278;1016459;-62
2023/08/28 07:29:05;;;;;;;16.60;5.90;;;;;;;29.56;48.55;98393.26;67813;1278;1016519;-62
2023/08/28 07:32:08;;;;;;;16.30;5.90;;;;;;;29.88;48.11;98389.89;67802;1278;1016491;-62
2023/08/28 07:35:10;;;;;;;15.80;5.90;;;;;;;29.67;48.11;98389.06;67816;1278;1016045;-61
2023/08/28 07:38:13;;;;;;;16.00;6.20;;;;;;;29.36;47.79;98399.95;67866;1278;1016590;-61
2023/08/28 07:41:16;;;;;;;16.80;6.40;;;;;;;29.38;48.23;98403.92;67811;1278;1016293;-61
2023/08/28 07:44:19;;;;;;;13.90;5.90;;;;;;;29.49;47.74;98411.45;67863;1278;1016419;-61
2023/08/28 07:47:21;;;;;;;17.50;6.30;;;;;;;29.59;47.68;98422.58;67810;1278;1016272;-61
2023/08/28 07:50:23;;;;;;;15.40;5.60;;;;;;;29.57;47.26;98413.34;67824;1278;1016330;-61
2023/08/28 07:53:26;;;;;;;16.90;5.80;;;;;;;29.49;46.84;98405.00;67846;1278;1016153;-61
2023/08/28 07:56:28;;;;;;;16.60;6.00;;;;;;;29.25;46.79;98408.73;67858;1278;1016067;-59
2023/08/28 07:59:31;;;;;;;16.30;6.10;;;;;;;29.04;47.40;98414.23;67865;1278;1016217;-59
2023/08/28 08:02:33;;;;;;;12.60;4.80;;;;;;;28.87;47.48;98427.48;67833;1278;1015956;-59
2023/08/28 08:05:36;;;;;;;15.30;5.90;;;;;;;28.73;47.77;98408.30;67782;1278;1016385;-61
2023/08/28 08:08:38;;;;;;;19.80;6.70;;;;;;;28.84;47.79;98395.50;67821;1278;1016933;-61
2023/08/28 08:11:40;;;;;;;18.20;6.40;;;;;;;28.54;48.29;98421.02;67850;1278;1016477;-61
2023/08/28 08:14:43;;;;;;;16.30;6.30;;;;;;;28.49;49.06;98413.80;67867;1278;1016381;-59
2023/08/28 08:17:45;;;;;;;20.40;7.40;;;;;;;28.67;49.04;98413.08;67848;1278;1016377;-62
2023/08/28 08:20:48;;;;;;;18.80;7.10;;;;;;;28.73;49.36;98415.29;67818;1278;1016547;-62
2023/08/28 08:23:50;;;;;;;18.10;7.40;;;;;;;28.84;49.32;98415.80;67821;1278;1016600;-62
2023/08/28 08:26:53;;;;;;;19.80;7.80;;;;;;;28.87;49.10;98416.86;67837;1278;1016154;-62
2023/08/28 08:29:55;;;;;;;19.30;7.70;;;;;;;28.74;49.01;98418.18;67874;1278;1018503;-62
2023/08/28 08:32:57;;;;;;;19.40;7.80;;;;;;;28.73;49.28;98418.30;67860;1278;1016489;-59
2023/08/28 08:36:00;;;;;;;18.50;7.30;;;;;;;28.88;49.24;98402.23;67817;1278;1015930;-59
2023/08/28 08:39:03;;;;;;;21.50;7.70;;;;;;;29.10;48.97;98389.54;67812;1278;1016440;-60
2023/08/28 08:42:06;;;;;;;19.00;7.50;;;;;;;29.25;48.80;98390.09;67788;1278;1016716;-60
2023/08/28 08:45:08;;;;;;;19.60;7.90;;;;;;;29.49;48.16;98380.15;67832;1278;1016949;-61
2023/08/28 08:48:10;;;;;;;18.30;7.50;;;;;;;29.52;48.47;98375.27;67802;1278;1016422;-61
2023/08/28 08:51:13;;;;;;;20.20;7.30;;;;;;;29.59;48.74;98354.70;67850;1278;1016314;-61
2023/08/28 08:54:16;;;;;;;19.80;7.00;;;;;;;29.57;48.59;98347.96;67824;1278;1016825;-62
2023/08/28 08:57:18;;;;;;;18.90;7.10;;;;;;;29.57;48.61;98350.39;67768;1278;1016244;-58
2023/08/28 09:00:21;;;;;;;19.60;7.30;;;;;;;29.79;48.53;98344.55;67821;1257;1016327;-62
2023/08/28 09:03:24;;;;;;;17.50;6.40;;;;;;;30.17;48.61;98347.20;67843;1278;1016301;-62
2023/08/28 09:06:26;;;;;;;18.20;7.60;;;;;;;30.38;47.66;98359.82;67806;1278;1016455;-61
2023/08/28 09:09:29;;;;;;;16.70;6.50;;;;;;;30.44;47.41;98364.05;67819;1278;1016717;-61
2023/08/28 09:12:31;;;;;;;16.10;6.00;;;;;;;30.31;47.25;98373.30;67850;1278;1016452;-62
2023/08/28 09:15:34;;;;;;;18.00;6.40;;;;;;;30.26;47.16;98371.39;67866;1278;1016766;-62
2023/08/28 09:18:36;;;;;;;20.50;7.30;;;;;;;29.93;48.37;98369.14;67777;1278;1016462;-62
2023/08/28 09:21:38;;;;;;;16.80;6.60;;;;;;;30.08;48.56;98377.20;67792;1278;1016472;-62
2023/08/28 09:24:41;;;;;;;15.00;5.30;;;;;;;30.40;47.27;98379.91;67833;1278;1016537;-60
2023/08/28 09:27:43;;;;;;;18.10;6.40;;;;;;;30.41;47.13;98386.42;67842;1278;1020097;-61
2023/08/28 09:30:46;;;;;;;15.60;5.80;;;;;;;30.47;47.46;98388.44;67809;1278;1016352;-62
2023/08/28 09:33:48;;;;;;;13.10;5.30;;;;;;;30.56;46.82;98385.41;67754;1278;1016404;-62
2023/08/28 09:36:51;;;;;;;14.50;5.10;;;;;;;30.74;46.63;98382.73;67819;1278;1016164;-62
2023/08/28 09:39:53;;;;;;;15.30;5.70;;;;;;;30.88;45.79;98389.01;67839;1278;1016774;-62
2023/08/28 09:42:55;;;;;;;14.00;4.60;;;;;;;30.66;45.98;98399.64;67826;1278;1019491;-61
2023/08/28 09:45:58;;;;;;;14.80;4.70;;;;;;;30.41;46.45;98398.17;67836;1278;1016407;-61
2023/08/28 09:49:00;;;;;;;10.90;4.00;;;;;;;30.77;45.45;98393.45;67770;1278;1015969;-59
2023/08/28 09:52:03;;;;;;;10.30;3.90;;;;;;;30.48;45.24;98397.36;67809;1278;1016203;-62
2023/08/28 09:55:05;;;;;;;11.70;4.20;;;;;;;30.11;45.47;98399.98;67856;1278;1016454;-62
2023/08/28 09:58:08;;;;;;;9.90;3.80;;;;;;;29.87;45.67;98405.90;67820;1278;1016507;-62
2023/08/28 10:01:11;;;;;;;10.80;4.00;;;;;;;29.75;46.10;98400.09;67781;1278;1017022;-62
2023/08/28 10:04:14;;;;;;;12.20;4.20;;;;;;;29.59;46.49;98397.39;67847;1278;1016425;-62
2023/08/28 10:07:16;;;;;;;12.70;3.60;;;;;;;29.45;47.23;98397.64;67817;1278;1018158;-62
2023/08/28 10:10:18;;;;;;;10.80;3.70;;;;;;;29.69;46.41;98397.56;67785;1278;1016490;-62
2023/08/28 10:13:21;;;;;;;12.00;3.80;;;;;;;29.66;46.39;98394.89;67763;1278;1016505;-62
2023/08/28 10:16:23;;;;;;;11.20;3.70;;;;;;;29.66;46.43;98394.84;67847;1278;1018886;-62
2023/08/28 10:19:26;;;;;;;10.40;3.70;;;;;;;29.82;46.66;98385.75;67864;1278;1016481;-62
2023/08/28 10:22:28;;;;;;;11.00;3.90;;;;;;;30.17;46.39;98375.42;67771;1278;1016258;-62
2023/08/28 10:25:31;;;;;;;10.50;3.60;;;;;;;30.22;46.07;98376.77;67819;1277;1016914;-61
2023/08/28 10:28:33;;;;;;;11.10;4.00;;;;;;;30.34;45.93;98379.55;67811;1278;1016273;-62
2023/08/28 10:31:38;;;;;;;10.70;4.00;;;;;;;30.39;45.71;98377.34;67869;1278;1015957;-62
2023/08/28 10:34:42;;;;;;;11.20;4.00;;;;;;;30.41;45.70;98356.67;67824;1278;1016388;-62
2023/08/28 10:37:44;;;;;;;10.00;4.00;;;;;;;30.62;45.98;98349.02;67801;1278;1016606;-62
2023/08/28 10:40:46;;;;;;;11.80;4.30;;;;;;;30.86;45.84;98346.83;67833;1277;1016200;-59
2023/08/28 10:43:49;;;;;;;11.70;4.00;;;;;;;31.16;45.52;98346.20;67828;1278;1018928;-59
2023/08/28 10:46:52;;;;;;;12.60;4.40;;;;;;;31.29;44.83;98346.39;67804;1278;1018774;-59
2023/08/28 10:49:55;;;;;;;12.40;4.00;;;;;;;31.27;44.58;98349.66;67846;1278;1018913;-60
2023/08/28 10:52:58;;;;;;;14.60;4.30;;;;;;;31.10;44.61;98351.70;67833;1278;1016686;-60
2023/08/28 10:56:00;;;;;;;12.90;3.90;;;;;;;30.96;44.93;98354.84;67856;1278;1016650;-59
2023/08/28 10:59:02;;;;;;;10.90;4.00;;;;;;;30.94;44.34;98357.04;67828;1278;1015737;-59
2023/08/28 11:02:05;;;;;;;11.20;3.90;;;;;;;30.88;44.25;98357.86;67829;1278;1016339;-59
2023/08/28 11:05:08;;;;;;;11.30;3.80;;;;;;;30.70;44.22;98352.60;67852;1278;1016559;-60
2023/08/28 11:08:11;;;;;;;10.80;3.60;;;;;;;30.68;44.29;98353.69;67848;1278;1016890;-62
2023/08/28 11:11:14;;;;;;;11.20;3.90;;;;;;;30.61;44.08;98351.48;67820;1278;1016112;-62
2023/08/28 11:14:16;;;;;;;9.40;3.60;;;;;;;30.59;44.19;98349.16;67827;1278;1016595;-62
2023/08/28 11:17:18;;;;;;;10.10;3.50;;;;;;;30.69;43.61;98348.95;67851;1278;1016326;-61
2023/08/28 11:20:21;;;;;;;9.10;3.50;;;;;;;30.65;43.92;98349.83;67802;1277;1016476;-62
2023/08/28 11:23:23;;;;;;;12.00;4.00;;;;;;;30.81;43.78;98347.27;67798;1278;1019021;-59
2023/08/28 11:26:26;;;;;;;9.20;3.80;;;;;;;31.14;43.50;98343.33;67812;1278;1016486;-59
2023/08/28 11:29:30;;;;;;;10.90;3.70;;;;;;;31.17;42.97;98344.48;67835;1278;1016468;-59
2023/08/28 11:32:32;;;;;;;9.50;3.40;;;;;;;31.16;42.90;98346.73;67847;1278;1016477;-59
2023/08/28 11:35:35;;;;;;;10.60;3.60;;;;;;;30.97;42.84;98344.16;67841;1278;1015733;-62
2023/08/28 11:38:38;;;;;;;15.00;4.20;;;;;;;31.09;43.18;98340.38;67785;1278;1016278;-62
2023/08/28 11:41:40;;;;;;;8.40;3.60;;;;;;;31.09;42.49;98337.77;67805;1278;1016450;-62
2023/08/28 11:44:42;;;;;;;10.70;3.70;;;;;;;30.91;42.04;98337.67;67847;1278;1016303;-62
2023/08/28 11:47:45;;;;;;;10.40;3.60;;;;;;;30.80;42.43;98336.36;67839;1278;1016905;-61
2023/08/28 11:50:47;;;;;;;10.40;3.80;;;;;;;30.91;42.14;98334.44;67831;1278;1016400;-59
2023/08/28 11:53:50;;;;;;;12.50;4.00;;;;;;;30.94;42.16;98337.97;67819;1278;1016289;-59
2023/08/28 11:56:53;;;;;;;11.90;4.10;;;;;;;31.03;42.42;98337.73;67832;1278;1016171;-59
2023/08/28 11:59:56;;;;;;;10.60;3.90;;;;;;;31.19;42.11;98331.14;67814;1278;1016419;-62
2023/08/28 12:02:58;;;;;;;10.80;3.70;;;;;;;31.28;41.95;98323.20;67813;1278;1016387;-62
2023/08/28 12:06:01;;;;;;;13.20;4.00;;;;;;;31.11;41.94;98317.11;67841;1278;1016897;-62
2023/08/28 12:09:04;;;;;;;13.30;4.10;;;;;;;30.96;42.10;98312.99;67846;1278;1016417;-62
2023/08/28 12:12:07;;;;;;;12.70;4.10;;;;;;;30.81;42.11;98308.77;67824;1278;1015817;-61
2023/08/28 12:15:09;;;;;;;14.90;4.60;;;;;;;30.61;42.58;98312.51;67877;1278;1016492;-61
2023/08/28 12:18:11;;;;;;;11.30;4.00;;;;;;;30.22;43.12;98314.39;67852;1278;1016333;-61
2023/08/28 12:21:15;;;;;;;12.20;4.20;;;;;;;30.15;43.41;98312.54;67805;1278;1016329;-59
2023/08/28 12:24:17;;;;;;;13.40;4.40;;;;;;;30.42;43.63;98308.10;67806;1278;1016734;-60
2023/08/28 12:27:19;;;;;;;11.10;4.10;;;;;;;30.34;43.92;98301.58;67837;1278;1016322;-59
2023/08/28 12:30:22;;;;;;;13.90;4.60;;;;;;;30.55;43.24;98300.24;67821;1278;1016479;-59
2023/08/28 12:33:24;;;;;;;10.70;4.00;;;;;;;30.42;43.91;98292.73;67795;1278;1016307;-59
2023/08/28 12:36:27;;;;;;;10.60;4.10;;;;;;;30.65;43.36;98288.14;67827;1278;1016348;-59
2023/08/28 12:39:29;;;;;;;12.80;4.50;;;;;;;30.52;43.67;98283.80;67811;1278;1016080;-59
2023/08/28 12:42:32;;;;;;;12.00;4.50;;;;;;;30.69;43.58;98275.61;67823;1278;1016033;-59
2023/08/28 12:45:34;;;;;;;14.40;4.50;;;;;;;30.68;43.59;98275.00;67788;1278;1016503;-59
2023/08/28 12:48:36;;;;;;;13.30;4.50;;;;;;;30.59;43.60;98274.42;67796;1278;1018239;-59
2023/08/28 12:51:39;;;;;;;11.50;4.30;;;;;;;30.80;42.92;98284.13;67876;1278;1016432;-61
2023/08/28 12:54:41;;;;;;;10.50;4.00;;;;;;;30.65;42.89;98282.88;67852;1278;1016456;-61
2023/08/28 12:57:44;;;;;;;15.20;4.70;;;;;;;30.05;43.42;98281.20;67817;1278;1016520;-61
2023/08/28 13:00:46;;;;;;;12.20;4.60;;;;;;;30.25;43.45;98277.41;67797;1278;1016589;-62
2023/08/28 13:03:49;;;;;;;13.10;4.60;;;;;;;30.43;43.42;98271.88;67792;1278;1016494;-59
2023/08/28 13:06:51;;;;;;;15.50;4.30;;;;;;;30.67;43.02;98265.98;67827;1278;1017167;-61
2023/08/28 13:09:55;;;;;;;13.90;4.60;;;;;;;30.71;42.77;98258.30;67833;1278;1016878;-61
2023/08/28 13:12:57;;;;;;;13.80;4.40;;;;;;;30.75;42.76;98254.63;67823;1278;1016743;-61
2023/08/28 13:16:01;;;;;;;12.70;4.30;;;;;;;30.77;42.74;98251.42;67806;1278;1016499;-58
2023/08/28 13:19:04;;;;;;;16.00;5.00;;;;;;;30.66;42.90;98251.85;67795;1262;1018754;-60
2023/08/28 13:22:07;;;;;;;13.60;4.90;;;;;;;30.50;43.06;98250.36;67802;1278;1016490;-60
2023/08/28 13:25:09;;;;;;;16.00;5.50;;;;;;;30.42;43.24;98245.52;67764;1278;1016403;-61
2023/08/28 13:28:13;;;;;;;14.80;4.70;;;;;;;30.54;43.61;98249.04;67809;1278;1016446;-62
2023/08/28 13:31:16;;;;;;;14.80;4.80;;;;;;;30.34;44.28;98245.42;67829;1278;1016765;-62
2023/08/28 13:34:19;;;;;;;12.60;4.60;;;;;;;30.12;44.74;98242.13;67803;1278;1016417;-60
2023/08/28 13:37:21;;;;;;;15.50;4.90;;;;;;;30.23;44.64;98245.63;67781;1278;1016239;-62
2023/08/28 13:40:24;;;;;;;16.00;4.90;;;;;;;30.13;44.91;98242.73;67838;1278;1016516;-62
2023/08/28 13:43:26;;;;;;;12.80;4.60;;;;;;;30.09;44.95;98237.63;67839;1278;1016352;-62
2023/08/28 13:46:28;;;;;;;12.40;4.30;;;;;;;30.02;44.70;98235.67;67803;1277;1016572;-62
2023/08/28 13:49:31;;;;;;;14.90;5.10;;;;;;;30.01;44.93;98236.98;67785;1278;1016404;-59
2023/08/28 13:52:33;;;;;;;16.20;4.90;;;;;;;30.12;44.56;98245.33;67798;1278;1020659;-60
2023/08/28 13:55:37;;;;;;;14.70;4.90;;;;;;;30.51;43.94;98251.96;67841;1278;1016509;-61
2023/08/28 13:58:39;;;;;;;15.80;5.00;;;;;;;30.07;44.43;98255.09;67794;1278;1016144;-61